Thursday, July 19, 2018, 1:43 AM EDT
Back to Local

KSMQ, Somerville Somerset Airport

Location: Bedminster, NJ, United States Lat: 40.617
Local Time: 1:43 AM EDT ( 5:43 GMT) Lon: -74.667
Time Zone: US/Eastern Elev: 104 ft

Show me the last for .
Show Decoded

2018-07-19 00:53 METAR KSMQ 190453Z AUTO 00000KT 10SM CLR 14/14 A3000 RMK AO2 SLP158 T01440144
                 403000144 =
2018-07-18 23:53 METAR KSMQ 190353Z AUTO 00000KT 10SM CLR 16/16 A2999 RMK AO2 SLP154 T01610156 =
2018-07-18 22:53 METAR KSMQ 190253Z AUTO 00000KT 10SM CLR 18/16 A2998 RMK AO2 SLP150 T01780156
                 51019 =
2018-07-18 21:53 METAR KSMQ 190153Z AUTO 00000KT 10SM CLR 19/16 A2996 RMK AO2 SLP146 T01940156 =
2018-07-18 20:53 METAR KSMQ 190053Z AUTO 33003KT 10SM CLR 22/14 A2994 RMK AO2 SLP137 T02220144 =
2018-07-18 19:53 METAR KSMQ 182353Z AUTO 34004KT 10SM CLR 26/13 A2992 RMK AO2 SLP132 T02560133
                 10300 20256 53013 =
2018-07-18 18:53 METAR KSMQ 182253Z AUTO 35006KT 10SM CLR 28/13 A2990 RMK AO2 SLP124 T02830128 =
2018-07-18 17:53 METAR KSMQ 182153Z AUTO 35006KT 10SM SCT075 29/13 A2989 RMK AO2 SLP120 T02890128
                 =
2018-07-18 16:53 METAR KSMQ 182053Z AUTO 33009G18KT 10SM CLR 29/13 A2988 RMK AO2 SLP119 T02940128
                 58004 =
2018-07-18 15:53 METAR KSMQ 181953Z AUTO 36008KT 10SM SCT070 29/13 A2989 RMK AO2 SLP121 T02940133
                 =
2018-07-18 14:53 METAR KSMQ 181853Z AUTO 36010G16KT 10SM CLR 29/13 A2990 RMK AO2 SLP122 T02940133
                 =
2018-07-18 13:53 METAR KSMQ 181753Z AUTO 32007G15KT 280V350 10SM FEW060 29/16 A2990 RMK AO2
                 SLP122 T02890156 10289 20206 55003 =
2018-07-18 12:53 METAR KSMQ 181653Z AUTO 02009KT 10SM FEW060 29/14 A2989 RMK AO2 SLP121 T02890139
                 =
2018-07-18 11:53 METAR KSMQ 181553Z AUTO 01007G17KT 10SM CLR 28/15 A2990 RMK AO2 SLP123 T02780150
                 =

Support USWX by starting your Amazon purchase here.